Terminal Aerodrome Forecast
Issued by NWS Wilmington, OH

Home | Current Version | Previous Version | Text Only | Print | Product List | Glossary On
Versions: 1 2 3 4 5 6 7 8 9 10 11 12 13 14 15 16 17 18 19 20 21 22
000
FTUS41 KILN 221918 AAA
TAFDAY
TAF AMD
KDAY 221918Z 2219/2318 24010KT P6SM VCSH SCT035 BKN080
     FM222200 24012KT P6SM VCSH BKN050
      TEMPO 2223/2303 3SM -SHRA BKN025
     FM230300 23008KT P6SM VCSH SCT050
      TEMPO 2304/2308 5SM -TSRA SCT025CB OVC060
     FM231000 29009KT P6SM SCT040 BKN070=

USA.gov is the U.S. government's official web portal to all federal, state and local government web resources and services.